Time;durP1;ratioP1;P1;durP2;ratioP2;P2;SDS_P1;SDS_P2;PMS_P1;PMS_P2;Temp;Humidity;BMP_temperature;BMP_pressure;BME280_temperature;BME280_humidity;BME280_pressure;Samples;Min_cycle;Max_cycle;Signal;HPM_P1;HPM_P2
2022/10/17 00:00:35;;;;;;;2.67;1.45;;;13.30;99.90;;;;;;5028995;28;20036;-74
2022/10/17 00:03:01;;;;;;;2.92;1.90;;;13.30;99.90;;;;;;5035753;28;20053;-73
2022/10/17 00:05:27;;;;;;;3.42;1.48;;;13.30;99.90;;;;;;5026091;28;20041;-74
2022/10/17 00:07:54;;;;;;;4.70;1.85;;;13.20;99.90;;;;;;5031252;28;20408;-72
2022/10/17 00:10:21;;;;;;;3.42;2.22;;;13.30;99.90;;;;;;5029257;28;20033;-74
2022/10/17 00:12:49;;;;;;;2.75;1.98;;;13.30;99.90;;;;;;5031336;28;20029;-73
2022/10/17 00:15:17;;;;;;;3.45;1.88;;;13.20;99.90;;;;;;5011132;28;20084;-74
2022/10/17 00:17:44;;;;;;;3.25;1.98;;;13.20;99.90;;;;;;5030120;28;20045;-74
2022/10/17 00:20:11;;;;;;;2.85;2.03;;;13.20;99.90;;;;;;5012623;28;20040;-74
2022/10/17 00:22:38;;;;;;;3.13;2.75;;;13.20;99.90;;;;;;5028779;28;20045;-72
2022/10/17 00:25:04;;;;;;;3.53;2.17;;;13.20;99.90;;;;;;5027155;28;20040;-74
2022/10/17 00:27:35;;;;;;;3.20;2.25;;;13.20;99.90;;;;;;5032161;28;20480;-74
2022/10/17 00:30:01;;;;;;;4.72;3.17;;;13.20;99.90;;;;;;5029764;28;20028;-74
2022/10/17 00:32:27;;;;;;;4.72;2.65;;;13.30;99.90;;;;;;5031396;28;20033;-73
2022/10/17 00:34:53;;;;;;;2.65;2.20;;;13.30;99.90;;;;;;5009165;28;20360;-74
2022/10/17 00:37:20;;;;;;;3.28;2.38;;;13.30;99.90;;;;;;5029269;28;20041;-72
2022/10/17 00:39:46;;;;;;;2.72;2.20;;;13.30;99.90;;;;;;5030354;28;20040;-74
2022/10/17 00:42:12;;;;;;;3.70;2.30;;;13.30;99.90;;;;;;5030505;28;20041;-74
2022/10/17 00:44:39;;;;;;;4.38;2.78;;;13.30;99.90;;;;;;5031802;28;20611;-73
2022/10/17 00:47:10;;;;;;;3.25;2.35;;;13.30;99.90;;;;;;5033042;28;20037;-72
2022/10/17 00:49:39;;;;;;;4.03;3.10;;;13.40;99.90;;;;;;5014314;28;20037;-74
2022/10/17 00:52:09;;;;;;;3.67;2.55;;;13.30;99.90;;;;;;5031087;28;20400;-73
2022/10/17 00:54:41;;;;;;;4.22;2.80;;;13.30;99.90;;;;;;5028040;28;20045;-74
2022/10/17 00:57:08;;;;;;;2.58;2.25;;;13.40;99.90;;;;;;5031414;28;20029;-74
2022/10/17 00:59:37;;;;;;;4.00;2.75;;;13.40;99.90;;;;;;5028794;28;20037;-73
2022/10/17 01:02:08;;;;;;;3.90;2.67;;;13.40;99.90;;;;;;5030912;28;20045;-74
2022/10/17 01:04:39;;;;;;;3.58;2.05;;;13.40;99.90;;;;;;5027413;28;20049;-74
2022/10/17 01:07:05;;;;;;;5.30;2.78;;;13.40;99.90;;;;;;5017632;28;20049;-73
2022/10/17 01:09:32;;;;;;;2.53;2.33;;;13.50;99.90;;;;;;5027877;28;20029;-72
2022/10/17 01:12:22;;;;;;;3.97;2.58;;;13.40;99.90;;;;;;5014081;28;20096;-74
2022/10/17 01:15:01;;;;;;;2.60;2.28;;;13.50;99.90;;;;;;5027740;28;20052;-74
2022/10/17 01:17:52;;;;;;;3.05;1.85;;;13.50;99.90;;;;;;5027498;28;20045;-73
2022/10/17 01:20:43;;;;;;;3.47;2.05;;;13.50;99.90;;;;;;5019995;28;20621;-74
2022/10/17 01:23:40;;;;;;;3.60;2.33;;;13.50;99.90;;;;;;5028053;28;20060;-74
2022/10/17 01:26:22;;;;;;;3.58;2.83;;;13.50;99.90;;;;;;5028165;28;20385;-74
2022/10/17 01:28:49;;;;;;;2.20;1.92;;;13.50;99.90;;;;;;5032300;28;20037;-75
2022/10/17 01:31:22;;;;;;;3.10;2.35;;;13.50;99.90;;;;;;5032277;28;20037;-74
2022/10/17 01:33:57;;;;;;;3.45;2.60;;;13.60;99.90;;;;;;5029650;28;20503;-73
2022/10/17 01:36:53;;;;;;;3.33;2.80;;;13.60;99.90;;;;;;5031932;28;20035;-75
2022/10/17 01:39:49;;;;;;;4.13;2.00;;;13.60;99.90;;;;;;5017397;28;20045;-75
2022/10/17 01:42:43;;;;;;;2.78;2.17;;;13.60;99.90;;;;;;5011260;28;20033;-74
2022/10/17 01:45:15;;;;;;;3.67;2.15;;;13.60;99.90;;;;;;5024220;28;20059;-73
2022/10/17 01:47:46;;;;;;;3.35;3.03;;;13.60;99.90;;;;;;5011622;28;20048;-73
2022/10/17 01:50:36;;;;;;;2.67;1.95;;;13.60;99.90;;;;;;5013735;28;20397;-74
2022/10/17 01:53:10;;;;;;;3.08;2.50;;;13.70;99.90;;;;;;5029352;28;20049;-74
2022/10/17 01:55:40;;;;;;;3.35;1.92;;;13.60;99.90;;;;;;5021344;28;20033;-73
2022/10/17 01:58:12;;;;;;;3.60;2.17;;;13.70;99.90;;;;;;5029303;28;20522;-74
2022/10/17 02:00:41;;;;;;;2.90;1.98;;;13.70;99.90;;;;;;5027299;28;20044;-74
2022/10/17 02:03:12;;;;;;;3.00;2.63;;;13.70;99.90;;;;;;4998837;28;20038;-74
2022/10/17 02:05:43;;;;;;;4.10;2.58;;;13.70;99.90;;;;;;5028475;28;20051;-74
2022/10/17 02:08:10;;;;;;;3.22;2.50;;;13.70;99.90;;;;;;5030634;28;20026;-74
2022/10/17 02:10:54;;;;;;;4.13;2.30;;;13.70;99.90;;;;;;5030833;28;20037;-73
2022/10/17 02:13:26;;;;;;;2.50;2.25;;;13.70;99.90;;;;;;5031494;28;20360;-74
2022/10/17 02:16:21;;;;;;;3.13;2.83;;;13.80;99.90;;;;;;5007655;28;20042;-73
2022/10/17 02:19:06;;;;;;;4.25;2.88;;;13.80;99.90;;;;;;5011734;28;20475;-75
2022/10/17 02:21:56;;;;;;;4.15;2.60;;;13.80;99.90;;;;;;5013342;28;20025;-73
2022/10/17 02:24:48;;;;;;;4.13;3.05;;;13.80;99.90;;;;;;5024552;28;20404;-72
2022/10/17 02:27:43;;;;;;;4.43;3.08;;;13.90;99.90;;;;;;5034427;28;20041;-74
2022/10/17 02:30:28;;;;;;;2.83;2.45;;;13.90;99.90;;;;;;5017934;28;20052;-72
2022/10/17 02:33:12;;;;;;;3.33;2.78;;;13.90;99.90;;;;;;5035484;28;20049;-74
2022/10/17 02:35:44;;;;;;;3.15;2.33;;;13.90;99.90;;;;;;5034409;28;20036;-74
2022/10/17 02:38:12;;;;;;;2.72;2.25;;;13.90;99.90;;;;;;5030296;28;20396;-74
2022/10/17 02:40:40;;;;;;;3.58;2.55;;;13.90;99.90;;;;;;5030248;28;20034;-74
2022/10/17 02:43:07;;;;;;;5.35;3.22;;;13.90;99.90;;;;;;5013038;28;20489;-74
2022/10/17 02:45:36;;;;;;;2.85;2.30;;;13.90;99.90;;;;;;5028198;28;20037;-74
2022/10/17 02:48:10;;;;;;;3.08;2.15;;;13.80;99.90;;;;;;5019414;28;20056;-73
2022/10/17 02:50:57;;;;;;;2.70;2.28;;;13.80;99.90;;;;;;5015112;28;20040;-73
2022/10/17 02:53:31;;;;;;;4.07;2.97;;;13.80;99.90;;;;;;5037227;28;20033;-75
2022/10/17 02:56:03;;;;;;;3.47;3.17;;;13.80;99.90;;;;;;5033673;28;20423;-74
2022/10/17 02:58:33;;;;;;;5.25;3.25;;;13.80;99.90;;;;;;5029422;28;20033;-73
2022/10/17 03:01:00;;;;;;;7.30;4.68;;;13.80;99.90;;;;;;5033802;28;21014;-74
2022/10/17 03:03:31;;;;;;;3.72;3.20;;;13.80;99.90;;;;;;5031980;28;20042;-73
2022/10/17 03:06:01;;;;;;;4.03;3.53;;;13.80;99.90;;;;;;5030630;28;20033;-74
2022/10/17 03:08:27;;;;;;;4.53;3.20;;;13.80;99.90;;;;;;5032579;28;20472;-74
2022/10/17 03:10:55;;;;;;;3.80;3.35;;;13.80;99.90;;;;;;5029048;28;20681;-74
2022/10/17 03:13:22;;;;;;;4.63;3.38;;;13.80;99.90;;;;;;5022273;28;20045;-73
2022/10/17 03:15:49;;;;;;;5.95;3.30;;;13.80;99.90;;;;;;5029259;28;20063;-73
2022/10/17 03:18:15;;;;;;;5.65;4.05;;;13.80;99.90;;;;;;5018508;28;20037;-74
2022/10/17 03:20:42;;;;;;;4.93;3.67;;;13.80;99.90;;;;;;5035524;28;20029;-74
2022/10/17 03:23:08;;;;;;;3.15;2.63;;;13.80;99.90;;;;;;5030492;28;20041;-74
2022/10/17 03:25:35;;;;;;;2.63;2.42;;;13.80;99.90;;;;;;5028698;28;20060;-74
2022/10/17 03:28:01;;;;;;;2.85;2.55;;;13.80;99.90;;;;;;5032538;28;20045;-74
2022/10/17 03:30:28;;;;;;;3.08;2.72;;;13.80;99.90;;;;;;5012554;28;20033;-73
2022/10/17 03:32:56;;;;;;;3.40;3.10;;;13.80;99.90;;;;;;5035350;28;20026;-74
2022/10/17 03:35:22;;;;;;;3.67;2.90;;;13.80;99.90;;;;;;5029674;28;20028;-73
2022/10/17 03:37:50;;;;;;;3.03;2.70;;;13.80;99.90;;;;;;5032936;28;20048;-75
2022/10/17 03:40:16;;;;;;;3.55;3.03;;;13.80;99.90;;;;;;5031485;28;20476;-74
2022/10/17 03:42:43;;;;;;;3.05;2.60;;;13.80;99.90;;;;;;5011752;28;20041;-72
2022/10/17 03:45:09;;;;;;;2.70;2.50;;;13.80;99.90;;;;;;5010939;28;20496;-73
2022/10/17 03:47:36;;;;;;;3.90;2.55;;;13.80;99.90;;;;;;5020660;28;20487;-74
2022/10/17 03:50:03;;;;;;;3.00;2.55;;;13.80;99.90;;;;;;5032254;28;20036;-74
2022/10/17 03:52:32;;;;;;;3.15;2.85;;;13.80;99.90;;;;;;5019714;28;20387;-74
2022/10/17 03:55:00;;;;;;;3.83;2.58;;;13.80;99.90;;;;;;5014112;28;20045;-74
2022/10/17 03:57:26;;;;;;;2.85;2.15;;;13.90;99.90;;;;;;5032362;28;20040;-72
2022/10/17 03:59:52;;;;;;;2.85;2.55;;;13.90;99.90;;;;;;5029942;28;20034;-74
2022/10/17 04:02:20;;;;;;;4.35;3.40;;;13.90;99.90;;;;;;5031309;28;20033;-73
2022/10/17 04:04:46;;;;;;;3.05;2.75;;;13.90;99.90;;;;;;5009573;28;20521;-74
2022/10/17 04:07:12;;;;;;;4.60;3.00;;;13.90;99.90;;;;;;5034956;28;20391;-74
2022/10/17 04:09:42;;;;;;;3.67;3.33;;;13.90;99.90;;;;;;5027517;28;20038;-74
2022/10/17 04:12:20;;;;;;;4.57;3.58;;;13.90;99.90;;;;;;5029307;28;20037;-74
2022/10/17 04:14:46;;;;;;;3.95;3.10;;;13.90;99.90;;;;;;5013295;28;20636;-74
2022/10/17 04:17:13;;;;;;;5.20;3.40;;;13.90;99.90;;;;;;5014513;28;20049;-74
2022/10/17 04:19:40;;;;;;;3.38;2.75;;;13.90;99.90;;;;;;5014446;28;20048;-74
2022/10/17 04:22:07;;;;;;;4.72;2.83;;;13.90;99.90;;;;;;5028851;28;20025;-74
2022/10/17 04:24:36;;;;;;;3.53;3.10;;;14.00;99.90;;;;;;5028029;28;20056;-73
2022/10/17 04:27:22;;;;;;;3.33;2.88;;;14.00;99.90;;;;;;5027808;28;20049;-74
2022/10/17 04:29:49;;;;;;;4.55;3.92;;;14.00;99.90;;;;;;5028049;28;20037;-74
2022/10/17 04:32:19;;;;;;;4.32;3.17;;;14.00;99.90;;;;;;5027099;28;20038;-74
2022/10/17 04:34:57;;;;;;;3.95;3.45;;;14.00;99.90;;;;;;5024709;28;20052;-74
2022/10/17 04:37:23;;;;;;;3.83;3.30;;;14.10;99.90;;;;;;5034946;28;20403;-73
2022/10/17 04:39:53;;;;;;;3.95;3.20;;;14.10;99.90;;;;;;5013520;28;20024;-74
2022/10/17 04:42:20;;;;;;;3.08;2.75;;;14.10;99.90;;;;;;5027889;28;20449;-74
2022/10/17 04:44:46;;;;;;;3.45;3.05;;;14.10;99.90;;;;;;5024217;28;20053;-73
2022/10/17 04:47:15;;;;;;;3.17;2.88;;;14.10;99.90;;;;;;5013621;28;20037;-74
2022/10/17 04:49:42;;;;;;;3.78;2.85;;;14.10;99.90;;;;;;5026500;28;20412;-74
2022/10/17 04:52:10;;;;;;;3.20;2.90;;;14.10;99.90;;;;;;5028386;28;20032;-75
2022/10/17 04:54:42;;;;;;;2.72;2.40;;;14.20;99.90;;;;;;5024637;28;20037;-74
2022/10/17 04:57:10;;;;;;;3.40;2.67;;;14.20;99.90;;;;;;5031782;28;20044;-75
2022/10/17 04:59:36;;;;;;;3.08;2.38;;;14.20;99.90;;;;;;5008011;28;20048;-75
2022/10/17 05:02:21;;;;;;;3.92;2.53;;;14.20;99.90;;;;;;5027685;28;20030;-74
2022/10/17 05:04:47;;;;;;;3.53;2.50;;;14.20;99.90;;;;;;5025377;28;20049;-75
2022/10/17 05:07:14;;;;;;;3.00;2.50;;;14.30;99.90;;;;;;5031007;28;20062;-74
2022/10/17 05:09:59;;;;;;;2.92;2.63;;;14.30;99.90;;;;;;5026734;28;20037;-75
2022/10/17 05:12:26;;;;;;;2.78;2.38;;;14.30;99.90;;;;;;5011801;28;20132;-74
2022/10/17 05:14:53;;;;;;;3.55;3.25;;;14.30;99.90;;;;;;5022305;28;20052;-74
2022/10/17 05:17:19;;;;;;;3.97;2.70;;;14.30;99.90;;;;;;5032116;28;20052;-73
2022/10/17 05:19:45;;;;;;;4.85;3.15;;;14.30;99.90;;;;;;5029307;28;20034;-74
2022/10/17 05:22:12;;;;;;;4.47;2.88;;;14.20;99.90;;;;;;5023913;28;20029;-73
2022/10/17 05:24:39;;;;;;;3.47;3.17;;;14.20;99.90;;;;;;5024721;28;20045;-74
2022/10/17 05:27:05;;;;;;;3.85;3.42;;;14.20;99.90;;;;;;5022217;28;20032;-74
2022/10/17 05:29:31;;;;;;;3.88;3.28;;;14.10;99.90;;;;;;5025747;28;20040;-73
2022/10/17 05:32:07;;;;;;;3.58;3.28;;;14.10;99.90;;;;;;5022968;28;20021;-74
2022/10/17 05:34:34;;;;;;;4.07;3.72;;;14.00;99.90;;;;;;5034324;28;20045;-73
2022/10/17 05:37:01;;;;;;;6.93;4.50;;;14.00;99.90;;;;;;5018982;28;20040;-74
2022/10/17 05:39:27;;;;;;;5.32;4.80;;;14.00;99.90;;;;;;5040095;28;20045;-74
2022/10/17 05:41:55;;;;;;;5.90;4.45;;;14.00;99.90;;;;;;5029573;28;20033;-74
2022/10/17 05:44:21;;;;;;;4.45;3.90;;;14.00;99.90;;;;;;5028282;28;20033;-74
2022/10/17 05:46:53;;;;;;;3.88;3.53;;;14.00;99.90;;;;;;5017780;28;20037;-74
2022/10/17 05:49:22;;;;;;;4.45;3.88;;;14.00;99.90;;;;;;4996122;28;20048;-74
2022/10/17 05:51:48;;;;;;;3.97;3.53;;;14.00;99.90;;;;;;5029294;28;20036;-74
2022/10/17 05:54:15;;;;;;;4.18;3.50;;;14.10;99.90;;;;;;5009534;28;20040;-72
2022/10/17 05:56:42;;;;;;;3.72;3.22;;;14.10;99.90;;;;;;5014578;28;20024;-73
2022/10/17 05:59:08;;;;;;;4.25;3.85;;;14.10;99.90;;;;;;5039602;28;20045;-75
2022/10/17 06:01:45;;;;;;;3.53;3.15;;;14.20;99.90;;;;;;5011818;28;20396;-75
2022/10/17 06:04:11;;;;;;;5.05;3.65;;;14.20;99.90;;;;;;5022345;28;20060;-73
2022/10/17 06:06:39;;;;;;;3.85;3.33;;;14.20;99.90;;;;;;5029146;28;20444;-74
2022/10/17 06:09:06;;;;;;;3.47;3.08;;;14.30;99.90;;;;;;5032647;28;20029;-73
2022/10/17 06:11:36;;;;;;;3.50;3.20;;;14.30;99.90;;;;;;4995000;28;20048;-74
2022/10/17 06:14:03;;;;;;;3.42;3.05;;;14.30;99.90;;;;;;5027381;28;20503;-74
2022/10/17 06:16:29;;;;;;;4.35;3.72;;;14.30;99.90;;;;;;5026669;28;20051;-75
2022/10/17 06:18:56;;;;;;;4.50;4.10;;;14.40;99.90;;;;;;5031431;28;20431;-72
2022/10/17 06:21:25;;;;;;;4.50;3.80;;;14.40;99.90;;;;;;5025896;28;20047;-73
2022/10/17 06:23:57;;;;;;;5.35;3.88;;;14.40;99.90;;;;;;5025666;28;20045;-72
2022/10/17 06:26:31;;;;;;;4.30;3.88;;;14.50;99.90;;;;;;5023522;28;20377;-75
2022/10/17 06:28:57;;;;;;;4.65;4.13;;;14.40;99.90;;;;;;5025890;28;20056;-74
2022/10/17 06:31:24;;;;;;;4.78;4.25;;;14.50;99.90;;;;;;5010213;28;20496;-72
2022/10/17 06:33:50;;;;;;;4.93;4.25;;;14.50;99.90;;;;;;5009349;28;20478;-73
2022/10/17 06:36:18;;;;;;;4.47;3.88;;;14.60;99.90;;;;;;5023874;28;20032;-74
2022/10/17 06:38:45;;;;;;;5.35;4.15;;;14.60;99.90;;;;;;4999651;28;20044;-75
2022/10/17 06:41:21;;;;;;;4.72;4.22;;;14.70;99.90;;;;;;5030097;28;20037;-73
2022/10/17 06:43:51;;;;;;;5.07;4.57;;;14.70;99.90;;;;;;5024740;28;20044;-75
2022/10/17 06:46:38;;;;;;;7.72;4.93;;;14.80;99.90;;;;;;5008309;28;20041;-72
2022/10/17 06:49:09;;;;;;;4.78;3.95;;;14.80;99.90;;;;;;5028017;28;20037;-75
2022/10/17 06:51:59;;;;;;;4.18;3.78;;;14.80;99.90;;;;;;5025857;28;20036;-73
2022/10/17 06:54:37;;;;;;;4.32;3.80;;;14.90;99.90;;;;;;5018155;28;20037;-73
2022/10/17 06:57:09;;;;;;;5.00;4.50;;;14.90;99.90;;;;;;5031576;28;20045;-75
2022/10/17 06:59:58;;;;;;;4.90;4.00;;;14.90;99.90;;;;;;5016696;28;20060;-74
2022/10/17 07:02:31;;;;;;;5.20;3.92;;;15.00;99.90;;;;;;5011665;28;20037;-73
2022/10/17 07:05:00;;;;;;;4.28;3.60;;;15.00;99.90;;;;;;5018547;28;20041;-73
2022/10/17 07:07:28;;;;;;;3.80;3.03;;;15.00;99.90;;;;;;5009910;28;20041;-74
2022/10/17 07:09:55;;;;;;;3.63;2.80;;;15.10;99.90;;;;;;5014256;28;20067;-75
2022/10/17 07:12:22;;;;;;;5.72;3.58;;;15.20;99.90;;;;;;5029689;28;20037;-74
2022/10/17 07:14:49;;;;;;;3.97;3.67;;;15.20;99.90;;;;;;5009559;28;20057;-73
2022/10/17 07:17:19;;;;;;;3.85;3.17;;;15.30;99.90;;;;;;5038151;28;20494;-74
2022/10/17 07:19:46;;;;;;;5.45;4.07;;;15.30;99.90;;;;;;5051951;28;20036;-75
2022/10/17 07:22:12;;;;;;;5.00;4.53;;;15.40;99.90;;;;;;5032438;28;20460;-74
2022/10/17 07:24:42;;;;;;;5.13;4.47;;;15.40;99.90;;;;;;5007562;28;20034;-75
2022/10/17 07:27:19;;;;;;;4.18;3.50;;;15.50;99.90;;;;;;5023069;28;20029;-73
2022/10/17 07:29:46;;;;;;;7.35;4.28;;;15.50;99.90;;;;;;5013599;28;20045;-72
2022/10/17 07:32:39;;;;;;;5.45;4.13;;;15.60;99.90;;;;;;5032135;28;20037;-74
2022/10/17 07:35:09;;;;;;;5.75;4.28;;;15.70;99.90;;;;;;5022297;28;20036;-73
2022/10/17 07:37:37;;;;;;;5.55;4.13;;;15.80;99.90;;;;;;5017587;28;20048;-73
2022/10/17 07:40:05;;;;;;;5.68;4.30;;;15.90;99.90;;;;;;5026541;28;20302;-75
2022/10/17 07:42:34;;;;;;;4.85;4.22;;;16.00;99.90;;;;;;5046377;28;20039;-74
2022/10/17 07:45:01;;;;;;;4.65;3.97;;;16.10;99.90;;;;;;5006478;28;20385;-75
2022/10/17 07:47:32;;;;;;;5.43;4.18;;;16.20;99.90;;;;;;5034702;28;20029;-76
2022/10/17 07:49:59;;;;;;;3.80;3.33;;;16.30;99.90;;;;;;5030267;28;20248;-76
2022/10/17 07:52:25;;;;;;;5.18;4.68;;;16.30;99.90;;;;;;5027934;28;20025;-76
2022/10/17 07:54:51;;;;;;;4.68;3.67;;;16.30;99.90;;;;;;5023678;28;20033;-75
2022/10/17 07:57:17;;;;;;;5.03;4.53;;;16.40;99.90;;;;;;5024149;28;20037;-75
2022/10/17 07:59:44;;;;;;;4.90;3.88;;;16.30;99.90;;;;;;5024124;28;20040;-76
2022/10/17 08:02:22;;;;;;;6.35;4.13;;;16.30;99.90;;;;;;5026245;28;20029;-73
2022/10/17 08:04:49;;;;;;;6.65;4.30;;;16.30;99.90;;;;;;5022798;28;20075;-73
2022/10/17 08:07:15;;;;;;;7.25;5.75;;;16.30;99.90;;;;;;5028084;28;20041;-74
2022/10/17 08:09:43;;;;;;;5.45;4.32;;;16.30;99.90;;;;;;5028020;28;20638;-73
2022/10/17 08:12:09;;;;;;;4.72;4.20;;;16.30;99.90;;;;;;5011429;28;20049;-74
2022/10/17 08:14:36;;;;;;;4.78;4.28;;;16.30;99.90;;;;;;4995559;28;20064;-74
2022/10/17 08:17:02;;;;;;;6.45;5.57;;;16.20;99.90;;;;;;5024993;28;20026;-73
2022/10/17 08:19:28;;;;;;;6.90;5.65;;;16.20;99.90;;;;;;5013538;28;20040;-74
2022/10/17 08:21:54;;;;;;;7.85;7.05;;;16.20;99.90;;;;;;5029308;28;20052;-75
2022/10/17 08:24:21;;;;;;;10.13;7.38;;;16.20;99.90;;;;;;5022458;28;20033;-75
2022/10/17 08:26:47;;;;;;;9.50;8.48;;;16.20;99.90;;;;;;5029714;28;20040;-73
2022/10/17 08:29:14;;;;;;;9.50;8.32;;;16.10;99.90;;;;;;5008942;28;20480;-76
2022/10/17 08:31:41;;;;;;;10.35;7.82;;;16.10;99.90;;;;;;5024149;28;20044;-76
2022/10/17 08:34:07;;;;;;;9.07;6.90;;;16.10;99.90;;;;;;5026019;28;20040;-74
2022/10/17 08:36:34;;;;;;;8.63;7.72;;;16.10;99.90;;;;;;5026205;28;20041;-75
2022/10/17 08:39:00;;;;;;;10.95;9.88;;;16.00;99.90;;;;;;5034697;28;20033;-78
2022/10/17 08:41:53;;;;;;;8.90;7.03;;;16.00;99.90;;;;;;5038838;28;20018;-76
2022/10/17 08:44:29;;;;;;;7.95;7.15;;;16.00;99.90;;;;;;5022566;28;20053;-75
2022/10/17 08:47:00;;;;;;;8.52;6.68;;;16.00;99.90;;;;;;5009193;28;20135;-74
2022/10/17 08:49:51;;;;;;;11.32;7.50;;;16.00;99.90;;;;;;5023613;28;20304;-74
2022/10/17 08:52:39;;;;;;;6.50;5.75;;;16.00;99.90;;;;;;5021658;28;20045;-73
2022/10/17 08:55:32;;;;;;;4.82;4.30;;;16.10;99.90;;;;;;5019415;28;20056;-74
2022/10/17 08:57:58;;;;;;;9.70;7.05;;;16.10;99.90;;;;;;5009781;28;20525;-75
2022/10/17 09:00:27;;;;;;;9.00;7.38;;;16.10;99.90;;;;;;5028025;28;20048;-75
2022/10/17 09:03:08;;;;;;;5.13;4.63;;;16.10;99.90;;;;;;5010333;28;20034;-75
2022/10/17 09:05:55;;;;;;;4.70;3.80;;;16.10;99.90;;;;;;5020869;28;20052;-76
2022/10/17 09:08:32;;;;;;;4.82;4.30;;;16.10;99.90;;;;;;5025670;28;20049;-77
2022/10/17 09:11:13;;;;;;;4.82;4.20;;;16.10;99.90;;;;;;5024764;28;20025;-77
2022/10/17 09:13:55;;;;;;;6.18;3.00;;;16.20;99.90;;;;;;5026050;28;20052;-74
2022/10/17 09:16:39;;;;;;;4.28;3.92;;;16.20;99.90;;;;;;5023136;28;20044;-78
2022/10/17 09:19:20;;;;;;;5.93;3.42;;;16.20;99.90;;;;;;5010704;28;20428;-79
2022/10/17 09:21:55;;;;;;;4.95;3.90;;;16.20;99.90;;;;;;5036882;28;20477;-77
2022/10/17 09:24:38;;;;;;;5.82;3.53;;;16.30;99.90;;;;;;5005205;28;20060;-75
2022/10/17 09:27:13;;;;;;;3.47;3.17;;;16.30;99.90;;;;;;5025090;28;20026;-77
2022/10/17 09:29:39;;;;;;;5.38;4.07;;;16.30;99.90;;;;;;5004338;28;20847;-79
2022/10/17 09:32:21;;;;;;;5.45;3.88;;;16.30;99.90;;;;;;5023741;28;20461;-78
2022/10/17 09:34:47;;;;;;;4.50;3.65;;;16.40;99.90;;;;;;5012060;28;20068;-77
2022/10/17 09:37:16;;;;;;;4.50;4.03;;;16.40;99.90;;;;;;4999720;28;20401;-77
2022/10/17 09:39:43;;;;;;;3.92;2.05;;;16.40;99.90;;;;;;5022775;28;20116;-76
2022/10/17 09:42:13;;;;;;;4.45;3.92;;;16.40;99.90;;;;;;5018436;28;20045;-75
2022/10/17 09:45:03;;;;;;;3.40;2.70;;;16.40;99.90;;;;;;5034706;28;20057;-77
2022/10/17 09:47:49;;;;;;;6.72;2.45;;;16.40;99.90;;;;;;5023200;28;20034;-76
2022/10/17 09:50:28;;;;;;;9.93;4.95;;;16.50;99.90;;;;;;5021599;28;20026;-77
2022/10/17 09:52:59;;;;;;;15.00;6.68;;;16.40;99.90;;;;;;5020030;28;20045;-77
2022/10/17 09:55:47;;;;;;;5.47;3.92;;;16.40;99.90;;;;;;5022476;28;20041;-77
2022/10/17 09:58:13;;;;;;;15.63;5.75;;;16.40;99.90;;;;;;5030742;28;20030;-81
2022/10/17 10:00:43;;;;;;;5.72;4.85;;;16.40;99.90;;;;;;5023432;28;20034;-78
2022/10/17 10:03:18;;;;;;;3.33;2.65;;;16.40;99.90;;;;;;5029234;28;20025;-81
2022/10/17 10:05:59;;;;;;;6.70;4.40;;;16.40;99.90;;;;;;5020237;28;20037;-80
2022/10/17 10:09:02;;;;;;;2.28;1.90;;;16.50;99.90;;;;;;5031682;28;20033;-81
2022/10/17 10:11:50;;;;;;;7.32;2.92;;;16.50;99.90;;;;;;5026452;28;20052;-80
2022/10/17 10:14:38;;;;;;;3.97;2.78;;;16.50;99.90;;;;;;5022589;28;20401;-77
2022/10/17 10:17:24;;;;;;;3.33;3.00;;;16.60;99.90;;;;;;5031401;28;20033;-79
2022/10/17 10:19:51;;;;;;;3.55;3.17;;;16.60;99.90;;;;;;5043841;28;20030;-78
2022/10/17 10:22:20;;;;;;;3.63;2.67;;;16.70;99.90;;;;;;4993565;28;20052;-79
2022/10/17 10:25:11;;;;;;;4.13;3.25;;;16.70;99.90;;;;;;5005194;28;20504;-79
2022/10/17 10:27:40;;;;;;;6.10;3.60;;;16.70;99.90;;;;;;5025137;28;20603;-80
2022/10/17 10:30:16;;;;;;;10.25;4.90;;;16.70;99.90;;;;;;5041897;28;20034;-82
2022/10/17 10:32:46;;;;;;;4.30;3.30;;;16.70;99.90;;;;;;5025854;28;20053;-80
2022/10/17 10:35:38;;;;;;;4.13;2.75;;;16.70;99.90;;;;;;5019700;28;20034;-78
2022/10/17 10:38:12;;;;;;;4.55;3.30;;;16.70;99.90;;;;;;5030989;28;20032;-79
2022/10/17 10:40:46;;;;;;;4.80;2.63;;;16.70;99.90;;;;;;5005219;28;20029;-79
2022/10/17 10:43:31;;;;;;;4.45;3.05;;;16.70;99.90;;;;;;5026868;28;20029;-79
2022/10/17 10:45:59;;;;;;;7.78;5.00;;;16.80;99.90;;;;;;5023399;28;20497;-81
2022/10/17 10:48:35;;;;;;;5.13;4.53;;;16.80;99.90;;;;;;5031983;28;20037;-80
2022/10/17 10:51:13;;;;;;;5.28;3.92;;;16.80;99.90;;;;;;5029309;28;20033;-78
2022/10/17 10:53:48;;;;;;;5.85;3.35;;;16.90;99.90;;;;;;5026351;28;20060;-77
2022/10/17 10:56:33;;;;;;;4.18;3.45;;;16.90;99.90;;;;;;5027794;28;20033;-78
2022/10/17 10:59:18;;;;;;;4.60;4.20;;;17.00;99.90;;;;;;5034019;28;20026;-76
2022/10/17 11:01:50;;;;;;;5.82;4.25;;;17.10;99.90;;;;;;5031423;28;20034;-78
2022/10/17 11:04:48;;;;;;;8.75;6.38;;;17.20;99.90;;;;;;5011395;28;20053;-76
2022/10/17 11:07:40;;;;;;;5.18;3.35;;;17.30;99.90;;;;;;5032217;28;20041;-76
2022/10/17 11:10:36;;;;;;;5.95;4.63;;;17.30;99.90;;;;;;5034953;28;20428;-76
2022/10/17 11:13:10;;;;;;;7.38;6.63;;;17.30;99.90;;;;;;5033556;28;20033;-77
2022/10/17 11:15:53;;;;;;;6.25;5.65;;;17.30;99.90;;;;;;5026552;28;20385;-76
2022/10/17 11:18:25;;;;;;;5.78;4.63;;;17.20;99.90;;;;;;5033504;28;20411;-75
2022/10/17 11:20:57;;;;;;;5.30;4.78;;;17.20;99.90;;;;;;5033710;28;20036;-76
2022/10/17 11:23:59;;;;;;;5.40;4.68;;;17.20;99.90;;;;;;5029162;28;20038;-75
2022/10/17 11:26:34;;;;;;;10.27;7.63;;;17.20;99.90;;;;;;5022205;28;20436;-76
2022/10/17 11:29:07;;;;;;;4.60;4.20;;;17.20;99.90;;;;;;5043933;28;20037;-75
2022/10/17 11:31:38;;;;;;;4.20;3.80;;;17.20;99.90;;;;;;5030033;28;20045;-78
2022/10/17 11:34:11;;;;;;;4.28;3.88;;;17.20;99.90;;;;;;5012931;28;20900;-77
2022/10/17 11:36:41;;;;;;;5.35;4.20;;;17.30;99.90;;;;;;5026183;28;20047;-74
2022/10/17 11:39:30;;;;;;;5.57;5.00;;;17.30;99.90;;;;;;5030101;28;20030;-76
2022/10/17 11:42:11;;;;;;;5.55;5.03;;;17.30;99.90;;;;;;5030717;28;20472;-77
2022/10/17 11:44:40;;;;;;;5.30;4.80;;;17.30;99.90;;;;;;5026077;28;20702;-77
2022/10/17 11:47:24;;;;;;;6.53;5.97;;;17.30;99.90;;;;;;5032975;28;20056;-78
2022/10/17 11:50:08;;;;;;;5.32;4.63;;;17.30;99.90;;;;;;5033321;28;20042;-77
2022/10/17 11:52:39;;;;;;;6.40;5.20;;;17.30;99.90;;;;;;5034824;28;20045;-79
2022/10/17 11:55:15;;;;;;;6.82;5.75;;;17.40;99.90;;;;;;5026778;28;20048;-80
2022/10/17 11:57:55;;;;;;;4.82;4.32;;;17.50;99.90;;;;;;5027220;28;20025;-79
2022/10/17 12:00:30;;;;;;;5.18;4.00;;;17.50;99.90;;;;;;5025127;28;20033;-79
2022/10/17 12:03:02;;;;;;;6.55;5.55;;;17.50;99.90;;;;;;5026044;28;20029;-78
2022/10/17 12:05:55;;;;;;;;;;;17.50;99.90;;;;;;5009772;28;20052;-78
2022/10/17 12:09:04;;;;;;;8.85;5.60;;;17.50;99.90;;;;;;5029096;28;20292;-79
2022/10/17 12:11:49;;;;;;;6.53;5.90;;;17.50;99.90;;;;;;5015456;28;20041;-79
2022/10/17 12:14:33;;;;;;;5.20;4.70;;;17.40;99.90;;;;;;5013914;28;20042;-76
2022/10/17 12:17:01;;;;;;;6.88;6.05;;;17.40;99.90;;;;;;5031045;28;20033;-80
2022/10/17 12:19:36;;;;;;;6.40;5.80;;;17.40;99.90;;;;;;5027348;28;20486;-78
2022/10/17 12:22:04;;;;;;;6.40;5.50;;;17.30;99.90;;;;;;5028877;28;20021;-79
2022/10/17 12:24:43;;;;;;;6.90;6.10;;;17.30;99.90;;;;;;5025331;28;20432;-75
2022/10/17 12:27:32;;;;;;;7.57;6.85;;;17.30;99.90;;;;;;5028953;28;20033;-77
2022/10/17 12:30:13;;;;;;;6.82;6.13;;;17.40;99.90;;;;;;5027767;28;20041;-79
2022/10/17 12:33:02;;;;;;;12.10;8.38;;;17.40;99.90;;;;;;5023417;28;20050;-77
2022/10/17 12:35:31;;;;;;;7.90;7.15;;;17.40;99.90;;;;;;5019614;28;20033;-78
2022/10/17 12:38:12;;;;;;;11.02;8.95;;;17.50;99.90;;;;;;5017308;28;20475;-76
2022/10/17 12:40:42;;;;;;;9.90;7.57;;;17.50;99.90;;;;;;5010710;28;20033;-79
2022/10/17 12:43:14;;;;;;;11.23;7.07;;;17.50;99.90;;;;;;5028831;28;20048;-76
2022/10/17 12:45:47;;;;;;;7.18;6.35;;;17.60;99.90;;;;;;5004700;28;20040;-76
2022/10/17 12:48:32;;;;;;;9.70;7.43;;;17.60;99.90;;;;;;5034649;28;20493;-76
2022/10/17 12:51:03;;;;;;;7.15;5.72;;;17.60;99.90;;;;;;5014820;28;20455;-77
2022/10/17 12:53:53;;;;;;;6.72;5.15;;;17.50;99.90;;;;;;5030364;28;20041;-76
2022/10/17 12:56:35;;;;;;;7.15;6.43;;;17.50;99.90;;;;;;5028083;28;20033;-79
2022/10/17 12:59:12;;;;;;;8.40;6.03;;;17.50;99.90;;;;;;5014445;28;20088;-79
2022/10/17 13:01:39;;;;;;;7.35;6.63;;;17.50;99.90;;;;;;5030893;28;20479;-79
2022/10/17 13:04:09;;;;;;;11.25;8.40;;;17.50;99.90;;;;;;5025788;28;20811;-78
2022/10/17 13:06:42;;;;;;;8.07;7.28;;;17.50;99.90;;;;;;5018413;28;20429;-77
2022/10/17 13:09:36;;;;;;;8.05;7.32;;;17.60;99.90;;;;;;5031733;28;20545;-78
2022/10/17 13:12:10;;;;;;;8.93;7.55;;;17.60;99.90;;;;;;5026165;28;20385;-77
2022/10/17 13:14:40;;;;;;;7.63;6.60;;;17.70;99.90;;;;;;5036453;28;21473;-75
2022/10/17 13:17:24;;;;;;;10.48;9.45;;;17.70;99.90;;;;;;5006074;28;20022;-77